View Sortable Currents For Network
ASOSAWOSCoCoRaHSCOOPDCPISUSM
SchoolNetOtherSCANMy FavoritesBy StateRWIS
RWIS SurfaceRWIS TrafficRWIS SoilBy NWS WFOUSCRN

Current SCAN Conditions

Sorted by: (Station ID)     Click on a column to sort it.
ADD: Station: Ob Time Temps °F   Wind [knots]  
Air (Hi / Lo) DewP Feels RH% Speed Direction Gust @Time Solar Rad
Rodgers Farm09:00 AM 54(54/40) 48 54 80 000
Crescent Lake No1Sep-21-18 04:00 AM 53(59/53) 52 53 94 000
Mason09:00 AM 63(63/50) 47 63 57 000
Ames09:00 AM 55(55/39) 47 55 76 000
Dexter10:00 AM 62(71/60) 61 62 94 000
Mt Vernon09:00 AM 62(62/57) 58 62 87 000
Powell Gardens09:00 AM 59(59/48) 48 59 66 000
SHAGBARK HILLSSep-21-18 04:00 AM 54(57/54) 51 54 90 000
Eros Data Center09:00 AM 52(52/39) 43 52 73 000
Schell-Osage10:00 AM 67(67/53) 54 67 62 000
Journagan Ranch10:00 AM 58(59/56) 57 58 97 000
CMRB LTAR10:00 AM 64(64/47) 48 64 56 000
Platteville10:00 AM 62(62/41) 51 62 69 000
Elsberry PMC10:00 AM 63(63/56) 49 63 61 000
Carver Farm10:00 AM 65(65/56) 51 65 60 000
Busby Farm10:00 AM 64(64/56) 51 64 62 000
Mark Twain HS10:00 AM 64(64/50) 49 64 57 000
Twin Pines Conservation10:00 AM 57(62/56) 56 57 97 000
Shaw Nature Reserve10:00 AM 63(64/59) 53 63 70 000


SCAN Soil Conditions

  2 inch 4 inch 8 inch 20 inch 40 inch
Station: Ob Time: Moist:Temp: Moist:Temp: Moist:Temp: Moist:Temp: Moist:Temp:
Rodgers Farm09:00 AM 370 440 420 540 -1000
Crescent Lake No1Sep-21-18 04:00 AM 120 190 220 90 70
Mason09:00 AM 50 30 80 130 270
Ames09:00 AM 370 450 470 540 560
Dexter10:00 AM 350 330 280 300 310
Mt Vernon09:00 AM 190 160 230 390 00
Powell Gardens09:00 AM 310 120 170 110 400
SHAGBARK HILLSSep-21-18 04:00 AM 460 390 430 430 400
Eros Data Center09:00 AM 300 380 350 360 430
Schell-Osage10:00 AM -1000 180 290 510 350
Journagan Ranch10:00 AM 280 110 360 380 390
CMRB LTAR10:00 AM 190 230 270 490 460
Platteville10:00 AM 390 360 380 440 540
Elsberry PMC10:00 AM 260 240 310 260 370
Carver Farm10:00 AM 80 150 200 120 330
Busby Farm10:00 AM 120 120 200 350 260
Mark Twain HS10:00 AM 200 250 270 490 390
Twin Pines Conservation10:00 AM 170 160 160 190 320
Shaw Nature Reserve10:00 AM 160 260 260 350 360